sensor_id;sensor_type;location;lat;lon;timestamp;P1;durP1;ratioP1;P2;durP2;ratioP2
22849;SDS011;11591;44.792;10.358;2022-07-23T00:00:32;12.07;;;7.45;;
22849;SDS011;11591;44.792;10.358;2022-07-23T00:02:58;11.52;;;7.57;;
22849;SDS011;11591;44.792;10.358;2022-07-23T00:05:23;10.88;;;7.10;;
22849;SDS011;11591;44.792;10.358;2022-07-23T00:07:49;14.88;;;7.63;;
22849;SDS011;11591;44.792;10.358;2022-07-23T00:10:15;11.55;;;7.30;;
22849;SDS011;11591;44.792;10.358;2022-07-23T00:12:41;11.02;;;6.97;;
22849;SDS011;11591;44.792;10.358;2022-07-23T00:15:07;13.50;;;7.78;;
22849;SDS011;11591;44.792;10.358;2022-07-23T00:17:34;10.50;;;6.97;;
22849;SDS011;11591;44.792;10.358;2022-07-23T00:20:00;12.23;;;7.97;;
22849;SDS011;11591;44.792;10.358;2022-07-23T00:22:26;18.88;;;7.93;;
22849;SDS011;11591;44.792;10.358;2022-07-23T00:24:54;14.50;;;7.55;;
22849;SDS011;11591;44.792;10.358;2022-07-23T00:27:21;12.30;;;7.70;;
22849;SDS011;11591;44.792;10.358;2022-07-23T00:29:47;9.68;;;7.18;;
22849;SDS011;11591;44.792;10.358;2022-07-23T00:32:13;10.20;;;7.38;;
22849;SDS011;11591;44.792;10.358;2022-07-23T00:34:39;15.48;;;7.63;;
22849;SDS011;11591;44.792;10.358;2022-07-23T00:37:04;13.75;;;7.15;;
22849;SDS011;11591;44.792;10.358;2022-07-23T00:39:30;13.70;;;7.63;;
22849;SDS011;11591;44.792;10.358;2022-07-23T00:41:56;10.20;;;7.18;;
22849;SDS011;11591;44.792;10.358;2022-07-23T00:44:23;13.18;;;7.43;;
22849;SDS011;11591;44.792;10.358;2022-07-23T00:46:51;10.68;;;7.68;;
22849;SDS011;11591;44.792;10.358;2022-07-23T00:49:24;10.35;;;7.38;;
22849;SDS011;11591;44.792;10.358;2022-07-23T00:51:52;13.20;;;7.47;;
22849;SDS011;11591;44.792;10.358;2022-07-23T00:54:19;13.35;;;7.55;;
22849;SDS011;11591;44.792;10.358;2022-07-23T00:56:47;12.38;;;7.55;;
22849;SDS011;11591;44.792;10.358;2022-07-23T00:59:13;13.43;;;7.82;;
22849;SDS011;11591;44.792;10.358;2022-07-23T01:01:39;13.48;;;7.28;;
22849;SDS011;11591;44.792;10.358;2022-07-23T01:04:05;10.40;;;6.47;;
22849;SDS011;11591;44.792;10.358;2022-07-23T01:06:34;12.93;;;7.32;;
22849;SDS011;11591;44.792;10.358;2022-07-23T01:09:02;9.23;;;7.30;;
22849;SDS011;11591;44.792;10.358;2022-07-23T01:11:30;15.30;;;7.65;;
22849;SDS011;11591;44.792;10.358;2022-07-23T01:13:57;11.02;;;6.80;;
22849;SDS011;11591;44.792;10.358;2022-07-23T01:16:23;10.65;;;6.97;;
22849;SDS011;11591;44.792;10.358;2022-07-23T01:18:50;11.55;;;7.43;;
22849;SDS011;11591;44.792;10.358;2022-07-23T01:21:16;14.13;;;7.25;;
22849;SDS011;11591;44.792;10.358;2022-07-23T01:23:44;8.38;;;6.85;;
22849;SDS011;11591;44.792;10.358;2022-07-23T01:26:09;14.13;;;7.30;;
22849;SDS011;11591;44.792;10.358;2022-07-23T01:28:36;15.57;;;9.88;;
22849;SDS011;11591;44.792;10.358;2022-07-23T01:31:03;9.52;;;7.35;;
22849;SDS011;11591;44.792;10.358;2022-07-23T01:33:33;14.25;;;6.88;;
22849;SDS011;11591;44.792;10.358;2022-07-23T01:35:59;10.43;;;6.97;;
22849;SDS011;11591;44.792;10.358;2022-07-23T01:38:26;10.95;;;6.85;;
22849;SDS011;11591;44.792;10.358;2022-07-23T01:40:51;10.77;;;7.35;;
22849;SDS011;11591;44.792;10.358;2022-07-23T01:43:17;8.75;;;6.70;;
22849;SDS011;11591;44.792;10.358;2022-07-23T01:45:43;10.07;;;7.00;;
22849;SDS011;11591;44.792;10.358;2022-07-23T01:48:11;9.05;;;7.03;;
22849;SDS011;11591;44.792;10.358;2022-07-23T01:50:43;11.57;;;6.47;;
22849;SDS011;11591;44.792;10.358;2022-07-23T01:53:20;12.32;;;6.85;;
22849;SDS011;11591;44.792;10.358;2022-07-23T01:55:46;11.25;;;6.22;;
22849;SDS011;11591;44.792;10.358;2022-07-23T01:58:12;8.60;;;6.50;;
22849;SDS011;11591;44.792;10.358;2022-07-23T02:00:38;11.48;;;6.72;;
22849;SDS011;11591;44.792;10.358;2022-07-23T02:03:04;9.65;;;6.43;;
22849;SDS011;11591;44.792;10.358;2022-07-23T02:05:30;10.63;;;6.60;;
22849;SDS011;11591;44.792;10.358;2022-07-23T02:07:58;9.38;;;6.63;;
22849;SDS011;11591;44.792;10.358;2022-07-23T02:10:24;14.13;;;7.03;;
22849;SDS011;11591;44.792;10.358;2022-07-23T02:12:50;9.77;;;6.40;;
22849;SDS011;11591;44.792;10.358;2022-07-23T02:15:16;14.20;;;7.20;;
22849;SDS011;11591;44.792;10.358;2022-07-23T02:17:42;10.75;;;6.97;;
22849;SDS011;11591;44.792;10.358;2022-07-23T02:20:09;9.50;;;6.72;;
22849;SDS011;11591;44.792;10.358;2022-07-23T02:22:36;11.32;;;7.00;;
22849;SDS011;11591;44.792;10.358;2022-07-23T02:25:03;10.13;;;6.95;;
22849;SDS011;11591;44.792;10.358;2022-07-23T02:27:32;14.20;;;6.30;;
22849;SDS011;11591;44.792;10.358;2022-07-23T02:29:58;11.55;;;6.28;;
22849;SDS011;11591;44.792;10.358;2022-07-23T02:32:25;14.02;;;6.68;;
22849;SDS011;11591;44.792;10.358;2022-07-23T02:34:51;12.45;;;6.18;;
22849;SDS011;11591;44.792;10.358;2022-07-23T02:37:18;13.32;;;6.63;;
22849;SDS011;11591;44.792;10.358;2022-07-23T02:39:45;9.73;;;5.82;;
22849;SDS011;11591;44.792;10.358;2022-07-23T02:42:11;11.90;;;6.22;;
22849;SDS011;11591;44.792;10.358;2022-07-23T02:44:37;12.65;;;5.90;;
22849;SDS011;11591;44.792;10.358;2022-07-23T02:47:03;9.85;;;5.53;;
22849;SDS011;11591;44.792;10.358;2022-07-23T02:49:29;13.35;;;6.32;;
22849;SDS011;11591;44.792;10.358;2022-07-23T02:51:55;9.88;;;6.40;;
22849;SDS011;11591;44.792;10.358;2022-07-23T02:54:21;10.13;;;5.85;;
22849;SDS011;11591;44.792;10.358;2022-07-23T02:56:47;10.30;;;6.15;;
22849;SDS011;11591;44.792;10.358;2022-07-23T02:59:13;8.95;;;5.60;;
22849;SDS011;11591;44.792;10.358;2022-07-23T03:01:39;15.18;;;6.00;;
22849;SDS011;11591;44.792;10.358;2022-07-23T03:04:05;10.48;;;5.50;;
22849;SDS011;11591;44.792;10.358;2022-07-23T03:06:31;9.50;;;5.70;;
22849;SDS011;11591;44.792;10.358;2022-07-23T03:08:57;9.20;;;5.72;;
22849;SDS011;11591;44.792;10.358;2022-07-23T03:11:23;13.05;;;6.35;;
22849;SDS011;11591;44.792;10.358;2022-07-23T03:13:49;9.88;;;6.10;;
22849;SDS011;11591;44.792;10.358;2022-07-23T03:16:15;10.50;;;5.68;;
22849;SDS011;11591;44.792;10.358;2022-07-23T03:18:40;13.35;;;5.97;;
22849;SDS011;11591;44.792;10.358;2022-07-23T03:21:07;8.10;;;6.07;;
22849;SDS011;11591;44.792;10.358;2022-07-23T03:23:33;13.30;;;5.57;;
22849;SDS011;11591;44.792;10.358;2022-07-23T03:25:59;9.75;;;6.07;;
22849;SDS011;11591;44.792;10.358;2022-07-23T03:28:25;8.48;;;5.32;;
22849;SDS011;11591;44.792;10.358;2022-07-23T03:30:51;8.88;;;5.78;;
22849;SDS011;11591;44.792;10.358;2022-07-23T03:33:17;11.90;;;6.22;;
22849;SDS011;11591;44.792;10.358;2022-07-23T03:35:45;8.35;;;5.90;;
22849;SDS011;11591;44.792;10.358;2022-07-23T03:38:20;11.40;;;8.18;;
22849;SDS011;11591;44.792;10.358;2022-07-23T03:40:45;11.43;;;6.30;;
22849;SDS011;11591;44.792;10.358;2022-07-23T03:43:11;10.98;;;6.25;;
22849;SDS011;11591;44.792;10.358;2022-07-23T03:45:37;9.65;;;5.95;;
22849;SDS011;11591;44.792;10.358;2022-07-23T03:48:03;11.48;;;5.97;;
22849;SDS011;11591;44.792;10.358;2022-07-23T03:50:29;9.18;;;5.40;;
22849;SDS011;11591;44.792;10.358;2022-07-23T03:52:55;10.38;;;5.53;;
22849;SDS011;11591;44.792;10.358;2022-07-23T03:55:21;8.18;;;5.57;;
22849;SDS011;11591;44.792;10.358;2022-07-23T03:57:47;11.90;;;6.00;;
22849;SDS011;11591;44.792;10.358;2022-07-23T04:00:13;6.28;;;5.32;;
22849;SDS011;11591;44.792;10.358;2022-07-23T04:02:40;9.55;;;5.50;;
22849;SDS011;11591;44.792;10.358;2022-07-23T04:05:07;10.32;;;5.70;;
22849;SDS011;11591;44.792;10.358;2022-07-23T04:07:33;8.48;;;5.80;;
22849;SDS011;11591;44.792;10.358;2022-07-23T04:09:59;15.00;;;5.80;;
22849;SDS011;11591;44.792;10.358;2022-07-23T04:12:25;8.02;;;5.32;;
22849;SDS011;11591;44.792;10.358;2022-07-23T04:14:52;12.68;;;5.65;;
22849;SDS011;11591;44.792;10.358;2022-07-23T04:17:17;8.00;;;5.72;;
22849;SDS011;11591;44.792;10.358;2022-07-23T04:19:43;8.90;;;5.70;;
22849;SDS011;11591;44.792;10.358;2022-07-23T04:22:11;12.77;;;5.50;;
22849;SDS011;11591;44.792;10.358;2022-07-23T04:24:37;10.30;;;5.95;;
22849;SDS011;11591;44.792;10.358;2022-07-23T04:27:03;12.38;;;5.72;;
22849;SDS011;11591;44.792;10.358;2022-07-23T04:29:30;14.00;;;5.72;;
22849;SDS011;11591;44.792;10.358;2022-07-23T04:31:56;12.43;;;6.28;;
22849;SDS011;11591;44.792;10.358;2022-07-23T04:34:22;13.45;;;5.80;;
22849;SDS011;11591;44.792;10.358;2022-07-23T04:36:49;12.18;;;5.97;;
22849;SDS011;11591;44.792;10.358;2022-07-23T04:39:15;12.93;;;5.85;;
22849;SDS011;11591;44.792;10.358;2022-07-23T04:41:41;8.63;;;5.65;;
22849;SDS011;11591;44.792;10.358;2022-07-23T04:44:07;8.23;;;5.57;;
22849;SDS011;11591;44.792;10.358;2022-07-23T04:46:34;12.15;;;5.75;;
22849;SDS011;11591;44.792;10.358;2022-07-23T04:49:00;10.30;;;5.78;;
22849;SDS011;11591;44.792;10.358;2022-07-23T04:51:26;9.80;;;5.47;;
22849;SDS011;11591;44.792;10.358;2022-07-23T04:53:52;9.23;;;5.43;;
22849;SDS011;11591;44.792;10.358;2022-07-23T04:56:17;7.20;;;5.22;;
22849;SDS011;11591;44.792;10.358;2022-07-23T04:58:43;11.88;;;5.95;;
22849;SDS011;11591;44.792;10.358;2022-07-23T05:01:10;8.00;;;6.00;;
22849;SDS011;11591;44.792;10.358;2022-07-23T05:03:36;16.98;;;6.10;;
22849;SDS011;11591;44.792;10.358;2022-07-23T05:06:03;13.55;;;5.97;;
22849;SDS011;11591;44.792;10.358;2022-07-23T05:08:30;10.80;;;5.43;;
22849;SDS011;11591;44.792;10.358;2022-07-23T05:10:57;13.25;;;6.18;;
22849;SDS011;11591;44.792;10.358;2022-07-23T05:13:23;7.88;;;5.60;;
22849;SDS011;11591;44.792;10.358;2022-07-23T05:15:53;11.32;;;5.72;;
22849;SDS011;11591;44.792;10.358;2022-07-23T05:18:19;14.50;;;6.20;;
22849;SDS011;11591;44.792;10.358;2022-07-23T05:20:45;11.57;;;6.60;;
22849;SDS011;11591;44.792;10.358;2022-07-23T05:23:14;12.85;;;5.75;;
22849;SDS011;11591;44.792;10.358;2022-07-23T05:25:40;18.23;;;6.25;;
22849;SDS011;11591;44.792;10.358;2022-07-23T05:28:07;11.05;;;5.93;;
22849;SDS011;11591;44.792;10.358;2022-07-23T05:30:33;14.63;;;6.15;;
22849;SDS011;11591;44.792;10.358;2022-07-23T05:33:01;10.52;;;6.07;;
22849;SDS011;11591;44.792;10.358;2022-07-23T05:35:28;14.00;;;6.20;;
22849;SDS011;11591;44.792;10.358;2022-07-23T05:38:10;8.45;;;5.70;;
22849;SDS011;11591;44.792;10.358;2022-07-23T05:40:37;10.15;;;6.20;;
22849;SDS011;11591;44.792;10.358;2022-07-23T05:43:03;14.52;;;6.38;;
22849;SDS011;11591;44.792;10.358;2022-07-23T05:45:29;17.00;;;6.15;;
22849;SDS011;11591;44.792;10.358;2022-07-23T05:47:54;17.35;;;6.07;;
22849;SDS011;11591;44.792;10.358;2022-07-23T05:50:32;14.90;;;5.70;;
22849;SDS011;11591;44.792;10.358;2022-07-23T05:53:05;9.32;;;5.82;;
22849;SDS011;11591;44.792;10.358;2022-07-23T05:55:49;11.32;;;5.82;;
22849;SDS011;11591;44.792;10.358;2022-07-23T05:58:15;11.68;;;5.53;;
22849;SDS011;11591;44.792;10.358;2022-07-23T06:00:41;9.80;;;5.63;;
22849;SDS011;11591;44.792;10.358;2022-07-23T06:03:07;14.32;;;5.95;;
22849;SDS011;11591;44.792;10.358;2022-07-23T06:05:33;14.18;;;6.53;;
22849;SDS011;11591;44.792;10.358;2022-07-23T06:07:59;9.95;;;6.13;;
22849;SDS011;11591;44.792;10.358;2022-07-23T06:10:26;9.75;;;5.57;;
22849;SDS011;11591;44.792;10.358;2022-07-23T06:12:52;10.27;;;6.35;;
22849;SDS011;11591;44.792;10.358;2022-07-23T06:15:18;10.38;;;6.30;;
22849;SDS011;11591;44.792;10.358;2022-07-23T06:17:45;11.73;;;7.18;;
22849;SDS011;11591;44.792;10.358;2022-07-23T06:20:11;10.93;;;6.30;;
22849;SDS011;11591;44.792;10.358;2022-07-23T06:22:39;11.10;;;6.50;;
22849;SDS011;11591;44.792;10.358;2022-07-23T06:25:05;13.98;;;5.90;;
22849;SDS011;11591;44.792;10.358;2022-07-23T06:27:32;8.70;;;5.80;;
22849;SDS011;11591;44.792;10.358;2022-07-23T06:29:58;12.93;;;6.00;;
22849;SDS011;11591;44.792;10.358;2022-07-23T06:32:23;9.57;;;5.90;;
22849;SDS011;11591;44.792;10.358;2022-07-23T06:34:49;10.27;;;5.50;;
22849;SDS011;11591;44.792;10.358;2022-07-23T06:37:15;9.13;;;5.45;;
22849;SDS011;11591;44.792;10.358;2022-07-23T06:39:41;14.65;;;6.22;;
22849;SDS011;11591;44.792;10.358;2022-07-23T06:42:07;10.25;;;6.03;;
22849;SDS011;11591;44.792;10.358;2022-07-23T06:44:38;9.55;;;5.55;;
22849;SDS011;11591;44.792;10.358;2022-07-23T06:47:06;9.63;;;6.10;;
22849;SDS011;11591;44.792;10.358;2022-07-23T06:49:32;16.10;;;6.05;;
22849;SDS011;11591;44.792;10.358;2022-07-23T06:51:58;10.27;;;5.80;;
22849;SDS011;11591;44.792;10.358;2022-07-23T06:54:24;9.13;;;5.90;;
22849;SDS011;11591;44.792;10.358;2022-07-23T06:56:50;17.13;;;5.65;;
22849;SDS011;11591;44.792;10.358;2022-07-23T06:59:15;13.77;;;6.07;;
22849;SDS011;11591;44.792;10.358;2022-07-23T07:01:42;10.60;;;5.70;;
22849;SDS011;11591;44.792;10.358;2022-07-23T07:04:08;13.65;;;6.00;;
22849;SDS011;11591;44.792;10.358;2022-07-23T07:06:34;16.80;;;6.05;;
22849;SDS011;11591;44.792;10.358;2022-07-23T07:08:59;11.02;;;5.80;;
22849;SDS011;11591;44.792;10.358;2022-07-23T07:11:25;10.13;;;6.38;;
22849;SDS011;11591;44.792;10.358;2022-07-23T07:13:51;11.82;;;5.95;;
22849;SDS011;11591;44.792;10.358;2022-07-23T07:16:17;12.52;;;5.88;;
22849;SDS011;11591;44.792;10.358;2022-07-23T07:18:43;12.57;;;7.32;;
22849;SDS011;11591;44.792;10.358;2022-07-23T07:21:09;10.05;;;6.35;;
22849;SDS011;11591;44.792;10.358;2022-07-23T07:23:34;14.90;;;6.50;;
22849;SDS011;11591;44.792;10.358;2022-07-23T07:26:00;9.90;;;6.30;;
22849;SDS011;11591;44.792;10.358;2022-07-23T07:28:26;17.70;;;6.53;;
22849;SDS011;11591;44.792;10.358;2022-07-23T07:30:52;17.83;;;7.32;;
22849;SDS011;11591;44.792;10.358;2022-07-23T07:33:18;12.77;;;7.03;;
22849;SDS011;11591;44.792;10.358;2022-07-23T07:35:44;15.73;;;7.25;;
22849;SDS011;11591;44.792;10.358;2022-07-23T07:38:10;13.95;;;7.10;;
22849;SDS011;11591;44.792;10.358;2022-07-23T07:40:35;11.65;;;6.68;;
22849;SDS011;11591;44.792;10.358;2022-07-23T07:43:01;15.02;;;7.07;;
22849;SDS011;11591;44.792;10.358;2022-07-23T07:45:28;15.98;;;7.28;;
22849;SDS011;11591;44.792;10.358;2022-07-23T07:47:54;17.90;;;7.75;;
22849;SDS011;11591;44.792;10.358;2022-07-23T07:50:20;11.93;;;7.20;;
22849;SDS011;11591;44.792;10.358;2022-07-23T07:52:47;15.25;;;7.85;;
22849;SDS011;11591;44.792;10.358;2022-07-23T07:55:12;16.77;;;8.27;;
22849;SDS011;11591;44.792;10.358;2022-07-23T07:57:39;13.93;;;7.40;;
22849;SDS011;11591;44.792;10.358;2022-07-23T08:00:06;19.52;;;8.02;;
22849;SDS011;11591;44.792;10.358;2022-07-23T08:02:39;9.52;;;7.35;;
22849;SDS011;11591;44.792;10.358;2022-07-23T08:05:20;14.32;;;8.18;;
22849;SDS011;11591;44.792;10.358;2022-07-23T08:07:46;18.52;;;8.82;;
22849;SDS011;11591;44.792;10.358;2022-07-23T08:10:12;18.05;;;8.45;;
22849;SDS011;11591;44.792;10.358;2022-07-23T08:12:39;18.23;;;9.70;;
22849;SDS011;11591;44.792;10.358;2022-07-23T08:15:05;16.23;;;9.13;;
22849;SDS011;11591;44.792;10.358;2022-07-23T08:17:32;17.17;;;9.35;;
22849;SDS011;11591;44.792;10.358;2022-07-23T08:19:57;13.13;;;8.32;;
22849;SDS011;11591;44.792;10.358;2022-07-23T08:22:23;17.08;;;8.65;;
22849;SDS011;11591;44.792;10.358;2022-07-23T08:24:49;17.70;;;8.98;;
22849;SDS011;11591;44.792;10.358;2022-07-23T08:27:15;19.40;;;9.27;;
22849;SDS011;11591;44.792;10.358;2022-07-23T08:29:41;14.60;;;8.70;;
22849;SDS011;11591;44.792;10.358;2022-07-23T08:32:06;21.67;;;8.88;;
22849;SDS011;11591;44.792;10.358;2022-07-23T08:34:32;15.70;;;8.88;;
22849;SDS011;11591;44.792;10.358;2022-07-23T08:36:58;17.83;;;9.63;;
22849;SDS011;11591;44.792;10.358;2022-07-23T08:39:24;16.85;;;9.20;;
22849;SDS011;11591;44.792;10.358;2022-07-23T08:41:49;16.10;;;8.65;;
22849;SDS011;11591;44.792;10.358;2022-07-23T08:44:16;15.40;;;8.63;;
22849;SDS011;11591;44.792;10.358;2022-07-23T08:46:43;23.25;;;9.23;;
22849;SDS011;11591;44.792;10.358;2022-07-23T08:49:09;12.85;;;8.35;;
22849;SDS011;11591;44.792;10.358;2022-07-23T08:51:36;14.57;;;8.65;;
22849;SDS011;11591;44.792;10.358;2022-07-23T08:54:02;15.10;;;8.85;;
22849;SDS011;11591;44.792;10.358;2022-07-23T08:56:29;13.25;;;8.88;;
22849;SDS011;11591;44.792;10.358;2022-07-23T08:58:55;15.02;;;8.80;;
22849;SDS011;11591;44.792;10.358;2022-07-23T09:01:21;15.50;;;9.43;;
22849;SDS011;11591;44.792;10.358;2022-07-23T09:03:46;15.07;;;9.30;;
22849;SDS011;11591;44.792;10.358;2022-07-23T09:06:12;12.70;;;8.73;;
22849;SDS011;11591;44.792;10.358;2022-07-23T09:11:05;15.65;;;8.77;;
22849;SDS011;11591;44.792;10.358;2022-07-23T09:18:39;19.73;;;9.65;;
22849;SDS011;11591;44.792;10.358;2022-07-23T09:21:22;15.23;;;9.45;;
22849;SDS011;11591;44.792;10.358;2022-07-23T09:23:59;18.70;;;9.35;;
22849;SDS011;11591;44.792;10.358;2022-07-23T09:31:50;13.73;;;8.85;;
22849;SDS011;11591;44.792;10.358;2022-07-23T09:36:52;18.27;;;10.77;;
22849;SDS011;11591;44.792;10.358;2022-07-23T09:39:32;16.13;;;8.52;;
22849;SDS011;11591;44.792;10.358;2022-07-23T09:42:15;18.88;;;9.55;;
22849;SDS011;11591;44.792;10.358;2022-07-23T09:44:44;18.58;;;9.70;;
22849;SDS011;11591;44.792;10.358;2022-07-23T09:47:16;17.05;;;9.45;;
22849;SDS011;11591;44.792;10.358;2022-07-23T09:52:35;13.73;;;8.90;;
22849;SDS011;11591;44.792;10.358;2022-07-23T09:55:08;16.85;;;9.45;;
22849;SDS011;11591;44.792;10.358;2022-07-23T09:57:34;16.80;;;9.23;;
22849;SDS011;11591;44.792;10.358;2022-07-23T10:00:02;13.27;;;9.00;;
22849;SDS011;11591;44.792;10.358;2022-07-23T10:02:31;13.40;;;9.50;;
22849;SDS011;11591;44.792;10.358;2022-07-23T10:05:17;18.48;;;9.20;;
22849;SDS011;11591;44.792;10.358;2022-07-23T10:08:07;13.90;;;8.52;;
22849;SDS011;11591;44.792;10.358;2022-07-23T10:10:48;13.35;;;8.63;;
22849;SDS011;11591;44.792;10.358;2022-07-23T10:13:36;11.13;;;8.02;;
22849;SDS011;11591;44.792;10.358;2022-07-23T10:16:12;14.25;;;9.20;;
22849;SDS011;11591;44.792;10.358;2022-07-23T10:18:38;13.38;;;8.68;;
22849;SDS011;11591;44.792;10.358;2022-07-23T10:21:05;13.77;;;8.85;;
22849;SDS011;11591;44.792;10.358;2022-07-23T10:23:35;14.68;;;8.90;;
22849;SDS011;11591;44.792;10.358;2022-07-23T10:26:17;13.98;;;10.98;;
22849;SDS011;11591;44.792;10.358;2022-07-23T10:34:17;10.68;;;8.02;;
22849;SDS011;11591;44.792;10.358;2022-07-23T10:36:55;12.70;;;8.45;;
22849;SDS011;11591;44.792;10.358;2022-07-23T10:39:28;13.63;;;8.52;;
22849;SDS011;11591;44.792;10.358;2022-07-23T10:42:09;16.48;;;8.73;;
22849;SDS011;11591;44.792;10.358;2022-07-23T10:44:40;15.70;;;8.15;;
22849;SDS011;11591;44.792;10.358;2022-07-23T10:47:11;11.32;;;7.82;;
22849;SDS011;11591;44.792;10.358;2022-07-23T10:49:46;17.08;;;8.10;;
22849;SDS011;11591;44.792;10.358;2022-07-23T10:54:56;12.60;;;8.20;;
22849;SDS011;11591;44.792;10.358;2022-07-23T10:57:48;16.27;;;9.40;;
22849;SDS011;11591;44.792;10.358;2022-07-23T11:00:22;14.88;;;8.45;;
22849;SDS011;11591;44.792;10.358;2022-07-23T11:02:50;16.17;;;7.90;;
22849;SDS011;11591;44.792;10.358;2022-07-23T11:05:25;13.32;;;8.13;;
22849;SDS011;11591;44.792;10.358;2022-07-23T11:08:18;11.27;;;8.13;;
22849;SDS011;11591;44.792;10.358;2022-07-23T11:10:47;15.50;;;7.80;;
22849;SDS011;11591;44.792;10.358;2022-07-23T11:34:34;14.40;;;7.53;;
22849;SDS011;11591;44.792;10.358;2022-07-23T11:37:04;10.15;;;7.72;;
22849;SDS011;11591;44.792;10.358;2022-07-23T11:39:32;12.25;;;7.38;;
22849;SDS011;11591;44.792;10.358;2022-07-23T11:41:59;14.80;;;7.28;;
22849;SDS011;11591;44.792;10.358;2022-07-23T11:44:26;12.80;;;7.05;;
22849;SDS011;11591;44.792;10.358;2022-07-23T11:49:26;11.65;;;6.63;;
22849;SDS011;11591;44.792;10.358;2022-07-23T11:52:05;13.27;;;7.13;;
22849;SDS011;11591;44.792;10.358;2022-07-23T11:57:13;11.38;;;7.55;;
22849;SDS011;11591;44.792;10.358;2022-07-23T11:59:39;17.05;;;7.72;;
22849;SDS011;11591;44.792;10.358;2022-07-23T12:02:05;14.10;;;8.48;;
22849;SDS011;11591;44.792;10.358;2022-07-23T12:04:42;16.48;;;8.45;;
22849;SDS011;11591;44.792;10.358;2022-07-23T12:07:32;13.32;;;7.18;;
22849;SDS011;11591;44.792;10.358;2022-07-23T12:10:10;12.30;;;7.70;;
22849;SDS011;11591;44.792;10.358;2022-07-23T12:12:41;8.68;;;7.25;;
22849;SDS011;11591;44.792;10.358;2022-07-23T12:15:15;10.05;;;7.35;;
22849;SDS011;11591;44.792;10.358;2022-07-23T12:17:44;13.93;;;7.60;;
22849;SDS011;11591;44.792;10.358;2022-07-23T12:20:15;13.82;;;7.30;;
22849;SDS011;11591;44.792;10.358;2022-07-23T12:22:44;13.15;;;8.00;;
22849;SDS011;11591;44.792;10.358;2022-07-23T12:25:16;9.73;;;7.28;;
22849;SDS011;11591;44.792;10.358;2022-07-23T12:27:44;12.98;;;8.13;;
22849;SDS011;11591;44.792;10.358;2022-07-23T12:30:17;14.98;;;8.43;;
22849;SDS011;11591;44.792;10.358;2022-07-23T12:32:44;12.52;;;8.00;;
22849;SDS011;11591;44.792;10.358;2022-07-23T12:35:10;16.10;;;8.50;;
22849;SDS011;11591;44.792;10.358;2022-07-23T12:37:37;18.20;;;8.27;;
22849;SDS011;11591;44.792;10.358;2022-07-23T12:42:51;12.98;;;8.75;;
22849;SDS011;11591;44.792;10.358;2022-07-23T12:45:19;16.10;;;8.50;;
22849;SDS011;11591;44.792;10.358;2022-07-23T12:47:59;11.93;;;8.48;;
22849;SDS011;11591;44.792;10.358;2022-07-23T12:50:37;15.55;;;8.70;;
22849;SDS011;11591;44.792;10.358;2022-07-23T12:55:34;14.07;;;8.88;;
22849;SDS011;11591;44.792;10.358;2022-07-23T12:58:11;16.92;;;9.05;;
22849;SDS011;11591;44.792;10.358;2022-07-23T13:00:51;18.75;;;9.10;;
22849;SDS011;11591;44.792;10.358;2022-07-23T13:03:31;11.95;;;8.82;;
22849;SDS011;11591;44.792;10.358;2022-07-23T13:06:05;12.85;;;8.57;;
22849;SDS011;11591;44.792;10.358;2022-07-23T13:08:37;11.15;;;8.93;;
22849;SDS011;11591;44.792;10.358;2022-07-23T13:11:04;15.63;;;8.27;;
22849;SDS011;11591;44.792;10.358;2022-07-23T13:13:32;15.38;;;8.63;;
22849;SDS011;11591;44.792;10.358;2022-07-23T13:15:59;15.35;;;9.00;;
22849;SDS011;11591;44.792;10.358;2022-07-23T13:18:26;12.18;;;9.05;;
22849;SDS011;11591;44.792;10.358;2022-07-23T13:20:52;14.13;;;8.57;;
22849;SDS011;11591;44.792;10.358;2022-07-23T13:23:18;12.93;;;8.82;;
22849;SDS011;11591;44.792;10.358;2022-07-23T13:25:45;11.25;;;8.35;;
22849;SDS011;11591;44.792;10.358;2022-07-23T13:28:11;12.68;;;8.75;;
22849;SDS011;11591;44.792;10.358;2022-07-23T13:30:38;11.55;;;8.75;;
22849;SDS011;11591;44.792;10.358;2022-07-23T13:33:05;15.25;;;8.98;;
22849;SDS011;11591;44.792;10.358;2022-07-23T13:35:31;17.73;;;9.82;;
22849;SDS011;11591;44.792;10.358;2022-07-23T13:37:58;15.15;;;9.00;;
22849;SDS011;11591;44.792;10.358;2022-07-23T13:40:24;12.77;;;8.80;;
22849;SDS011;11591;44.792;10.358;2022-07-23T13:42:50;15.80;;;8.75;;
22849;SDS011;11591;44.792;10.358;2022-07-23T13:45:16;11.90;;;8.77;;
22849;SDS011;11591;44.792;10.358;2022-07-23T13:47:41;17.10;;;8.90;;
22849;SDS011;11591;44.792;10.358;2022-07-23T13:50:07;11.98;;;8.20;;
22849;SDS011;11591;44.792;10.358;2022-07-23T13:52:34;14.27;;;8.45;;
22849;SDS011;11591;44.792;10.358;2022-07-23T13:55:00;18.67;;;8.68;;
22849;SDS011;11591;44.792;10.358;2022-07-23T13:57:29;14.15;;;9.30;;
22849;SDS011;11591;44.792;10.358;2022-07-23T13:59:55;13.23;;;8.52;;
22849;SDS011;11591;44.792;10.358;2022-07-23T14:02:21;19.23;;;8.68;;
22849;SDS011;11591;44.792;10.358;2022-07-23T14:04:47;17.88;;;8.88;;
22849;SDS011;11591;44.792;10.358;2022-07-23T14:07:14;18.23;;;9.00;;
22849;SDS011;11591;44.792;10.358;2022-07-23T14:09:40;18.02;;;8.65;;
22849;SDS011;11591;44.792;10.358;2022-07-23T14:12:06;23.25;;;8.98;;
22849;SDS011;11591;44.792;10.358;2022-07-23T14:14:32;12.60;;;9.13;;
22849;SDS011;11591;44.792;10.358;2022-07-23T14:16:58;13.80;;;9.18;;
22849;SDS011;11591;44.792;10.358;2022-07-23T14:19:24;13.80;;;8.23;;
22849;SDS011;11591;44.792;10.358;2022-07-23T14:21:50;14.23;;;8.60;;
22849;SDS011;11591;44.792;10.358;2022-07-23T14:24:16;13.80;;;8.63;;
22849;SDS011;11591;44.792;10.358;2022-07-23T14:26:42;14.27;;;9.88;;
22849;SDS011;11591;44.792;10.358;2022-07-23T14:29:08;14.48;;;8.23;;
22849;SDS011;11591;44.792;10.358;2022-07-23T14:31:34;12.40;;;8.63;;
22849;SDS011;11591;44.792;10.358;2022-07-23T14:34:00;15.13;;;9.38;;
22849;SDS011;11591;44.792;10.358;2022-07-23T14:36:27;11.05;;;8.70;;
22849;SDS011;11591;44.792;10.358;2022-07-23T14:38:53;14.23;;;8.52;;
22849;SDS011;11591;44.792;10.358;2022-07-23T14:41:18;11.15;;;8.50;;
22849;SDS011;11591;44.792;10.358;2022-07-23T14:43:44;16.02;;;8.93;;
22849;SDS011;11591;44.792;10.358;2022-07-23T14:46:11;12.57;;;8.32;;
22849;SDS011;11591;44.792;10.358;2022-07-23T14:48:38;11.15;;;8.35;;
22849;SDS011;11591;44.792;10.358;2022-07-23T14:51:03;14.07;;;9.20;;
22849;SDS011;11591;44.792;10.358;2022-07-23T14:53:29;8.90;;;6.40;;
22849;SDS011;11591;44.792;10.358;2022-07-23T14:55:55;12.32;;;5.85;;
22849;SDS011;11591;44.792;10.358;2022-07-23T14:58:25;8.10;;;5.60;;
22849;SDS011;11591;44.792;10.358;2022-07-23T15:00:51;10.63;;;5.60;;
22849;SDS011;11591;44.792;10.358;2022-07-23T15:03:17;10.98;;;5.90;;
22849;SDS011;11591;44.792;10.358;2022-07-23T15:05:43;16.90;;;5.35;;
22849;SDS011;11591;44.792;10.358;2022-07-23T15:08:09;9.65;;;5.35;;
22849;SDS011;11591;44.792;10.358;2022-07-23T15:10:35;8.77;;;5.00;;
22849;SDS011;11591;44.792;10.358;2022-07-23T15:13:01;12.02;;;5.70;;
22849;SDS011;11591;44.792;10.358;2022-07-23T15:15:26;16.45;;;5.53;;
22849;SDS011;11591;44.792;10.358;2022-07-23T15:17:52;12.77;;;5.03;;
22849;SDS011;11591;44.792;10.358;2022-07-23T15:20:18;18.08;;;5.03;;
22849;SDS011;11591;44.792;10.358;2022-07-23T15:22:44;12.68;;;4.65;;
22849;SDS011;11591;44.792;10.358;2022-07-23T15:25:10;9.70;;;4.85;;